createdAt,value
2022-11-15T00:05:28.785Z,0.00
2022-11-15T00:11:00.398Z,0.00
2022-11-15T00:16:32.306Z,1.00
2022-11-15T00:22:03.936Z,0.00
2022-11-15T00:27:35.757Z,0.00
2022-11-15T00:33:07.463Z,0.00
2022-11-15T00:38:39.312Z,0.00
2022-11-15T00:44:10.975Z,0.00
2022-11-15T00:49:42.840Z,0.00
2022-11-15T00:55:14.596Z,0.00
2022-11-15T01:00:46.344Z,0.00
2022-11-15T01:06:18.172Z,0.00
2022-11-15T01:11:50.222Z,1.00
2022-11-15T01:17:21.667Z,0.00
2022-11-15T01:22:52.901Z,0.00
2022-11-15T01:28:24.346Z,0.00
2022-11-15T01:33:56.058Z,0.00
2022-11-15T01:39:27.773Z,1.00
2022-11-15T01:44:59.092Z,0.00
2022-11-15T01:52:43.025Z,0.00
2022-11-15T01:58:14.353Z,0.00
2022-11-15T02:03:46.092Z,0.00
2022-11-15T02:09:17.953Z,1.00
2022-11-15T02:14:49.926Z,0.00
2022-11-15T02:20:21.606Z,0.00
2022-11-15T02:25:53.426Z,0.00
2022-11-15T02:31:25.246Z,0.00
2022-11-15T02:36:56.948Z,0.00
2022-11-15T02:42:29.114Z,0.00
2022-11-15T02:48:00.964Z,0.00
2022-11-15T02:53:33.037Z,0.00
2022-11-15T02:59:04.335Z,0.00
2022-11-15T03:04:36.445Z,0.00
2022-11-15T03:10:08.544Z,0.00
2022-11-15T03:15:40.373Z,0.00
2022-11-15T03:21:12.118Z,0.00
2022-11-15T03:26:44.032Z,0.00
2022-11-15T03:32:15.983Z,0.00
2022-11-15T03:37:47.644Z,0.00
2022-11-15T03:43:19.531Z,0.00
2022-11-15T03:48:51.264Z,1.00
2022-11-15T03:54:22.991Z,1.00
2022-11-15T03:59:54.725Z,0.00
2022-11-15T04:05:26.466Z,0.00
2022-11-15T04:10:58.972Z,0.00
2022-11-15T04:16:30.585Z,0.00
2022-11-15T04:22:02.306Z,1.00
2022-11-15T04:27:34.219Z,0.00
2022-11-15T04:33:05.872Z,0.00
2022-11-15T04:38:37.786Z,0.00
2022-11-15T04:44:09.366Z,0.00
2022-11-15T04:49:41.111Z,0.00
2022-11-15T04:55:12.837Z,0.00
2022-11-15T04:57:37.008Z,0.00
2022-11-15T05:03:08.947Z,0.00
2022-11-15T05:08:41.010Z,1.00
2022-11-15T05:14:13.064Z,0.00
2022-11-15T05:19:44.862Z,0.00
2022-11-15T05:25:16.797Z,1.00
2022-11-15T05:30:48.765Z,0.00
2022-11-15T05:36:20.671Z,1.00
2022-11-15T05:41:52.505Z,2.00
2022-11-15T05:47:24.142Z,6.00
2022-11-15T05:52:59.666Z,18.00
2022-11-15T05:58:28.296Z,60.00
2022-11-15T06:04:00.125Z,138.00
2022-11-15T06:09:31.817Z,244.00
2022-11-15T06:15:03.603Z,377.00
2022-11-15T06:20:35.558Z,673.00
2022-11-15T06:26:07.349Z,1040.00
2022-11-15T06:31:38.931Z,3188.00
2022-11-15T06:37:10.446Z,10585.00
2022-11-15T06:42:42.214Z,14596.00
2022-11-15T06:48:13.872Z,18449.00
2022-11-15T06:53:45.581Z,21157.00
2022-11-15T06:59:17.420Z,23455.00
2022-11-15T07:04:49.831Z,26680.00
2022-11-15T07:10:21.932Z,17658.00
2022-11-15T07:15:53.654Z,4908.00
2022-11-15T07:21:27.729Z,4545.00
2022-11-15T07:26:57.209Z,4643.00
2022-11-15T07:32:29.568Z,5182.00
2022-11-15T07:38:01.672Z,24188.00
2022-11-15T07:45:30.648Z,4554.00
2022-11-15T07:51:02.587Z,5165.00
2022-11-15T07:56:34.313Z,22436.00
2022-11-15T08:02:06.105Z,8301.00
2022-11-15T08:13:07.575Z,5480.00
2022-11-15T08:18:39.233Z,5404.00
2022-11-15T08:24:11.229Z,5385.00
2022-11-15T08:29:43.413Z,5309.00
2022-11-15T08:35:15.368Z,5192.00
2022-11-15T08:40:47.643Z,5065.00
2022-11-15T08:46:19.818Z,4941.00
2022-11-15T08:51:52.085Z,4794.00
2022-11-15T08:57:24.480Z,4730.00
2022-11-15T09:03:02.354Z,4676.00
2022-11-15T09:08:47.357Z,4610.00
2022-11-15T09:14:06.244Z,4573.00
2022-11-15T09:19:38.378Z,4557.00
2022-11-15T09:25:16.277Z,4532.00
2022-11-15T09:30:48.626Z,4502.00
2022-11-15T09:36:20.850Z,4488.00
2022-11-15T09:41:59.064Z,4471.00
2022-11-15T09:47:31.237Z,4462.00
2022-11-15T09:53:08.961Z,4486.00
2022-11-15T09:58:40.966Z,4219.00
2022-11-15T10:04:19.187Z,4493.00
2022-11-15T10:09:57.014Z,4471.00
2022-11-15T10:15:29.298Z,4413.00
2022-11-15T10:21:07.638Z,4399.00
2022-11-15T10:26:45.711Z,4365.00
2022-11-15T10:32:18.099Z,4346.00
2022-11-15T10:37:56.301Z,4265.00
2022-11-15T10:43:34.436Z,4202.00
2022-11-15T10:49:06.746Z,4125.00
2022-11-15T10:54:38.663Z,3965.00
2022-11-15T11:00:16.824Z,3835.00
2022-11-15T11:05:49.025Z,3730.00
2022-11-15T11:11:20.884Z,3638.00
2022-11-15T11:16:59.085Z,3574.00
2022-11-15T11:22:37.291Z,3519.00
2022-11-15T11:28:10.584Z,3486.00
2022-11-15T11:33:48.920Z,3438.00
2022-11-15T11:39:21.485Z,3403.00
2022-11-15T11:44:53.382Z,3374.00
2022-11-15T11:50:31.474Z,3361.00
2022-11-15T11:56:03.350Z,3288.00
2022-11-15T12:01:35.643Z,3281.00
2022-11-15T12:07:07.943Z,3278.00
2022-11-15T12:12:46.093Z,3318.00
2022-11-15T12:18:18.251Z,3339.00
2022-11-15T12:23:56.354Z,3355.00
2022-11-15T12:29:34.509Z,3399.00
2022-11-15T12:35:12.316Z,3595.00
2022-11-15T12:40:44.649Z,3718.00
2022-11-15T12:46:16.635Z,3843.00
2022-11-15T12:51:48.952Z,3955.00
2022-11-15T12:57:21.199Z,3886.00
2022-11-15T13:02:59.545Z,3760.00
2022-11-15T13:08:32.018Z,3555.00
2022-11-15T13:14:04.064Z,3495.00
2022-11-15T13:19:42.234Z,3356.00
2022-11-15T13:25:19.995Z,3231.00
2022-11-15T13:30:52.164Z,3176.00
2022-11-15T13:42:10.204Z,2993.00
2022-11-15T13:47:48.329Z,2396.00
2022-11-15T13:53:20.265Z,2202.00
2022-11-15T13:58:52.472Z,2310.00
2022-11-15T14:04:24.849Z,2346.00
2022-11-15T14:09:56.885Z,2533.00
2022-11-15T14:15:28.758Z,2551.00
2022-11-15T14:21:06.576Z,2385.00
2022-11-15T14:26:44.225Z,2298.00
2022-11-15T14:32:22.117Z,2042.00
2022-11-15T14:43:38.275Z,1349.00
2022-11-15T14:49:16.336Z,1231.00
2022-11-15T14:54:48.589Z,1110.00
2022-11-15T15:00:20.874Z,999.00
2022-11-15T15:05:53.210Z,912.00
2022-11-15T15:11:25.693Z,869.00
2022-11-15T15:16:57.804Z,728.00
2022-11-15T15:22:30.567Z,603.00
2022-11-15T15:28:02.464Z,475.00
2022-11-15T15:33:34.508Z,254.00
2022-11-15T15:39:06.678Z,143.00
2022-11-15T15:44:39.094Z,87.00
2022-11-15T15:50:11.489Z,48.00
2022-11-15T15:55:43.349Z,22.00
2022-11-15T16:01:15.300Z,9.00
2022-11-15T16:06:47.265Z,5.00
2022-11-15T16:12:19.211Z,3.00
2022-11-15T16:17:51.555Z,3.00
2022-11-15T16:23:23.620Z,3.00
2022-11-15T16:28:55.599Z,3.00
2022-11-15T16:34:31.169Z,3.00
2022-11-15T16:40:01.326Z,2.00
2022-11-15T16:45:32.288Z,3.00
2022-11-15T16:51:04.555Z,3.00
2022-11-15T16:56:36.605Z,1.00
2022-11-15T17:02:08.388Z,0.00
2022-11-15T17:07:40.032Z,0.00
2022-11-15T17:13:12.092Z,0.00
2022-11-15T17:18:44.388Z,1.00
2022-11-15T17:24:16.550Z,0.00
2022-11-15T17:29:48.723Z,1.00
2022-11-15T17:35:21.284Z,0.00
2022-11-15T17:40:53.155Z,0.00
2022-11-15T17:46:25.167Z,1.00
2022-11-15T17:51:57.723Z,0.00
2022-11-15T17:57:29.690Z,1.00
2022-11-15T18:03:01.764Z,0.00
2022-11-15T18:08:33.850Z,0.00
2022-11-15T18:14:05.764Z,1.00
2022-11-15T18:19:38.010Z,0.00
2022-11-15T18:25:10.246Z,0.00
2022-11-15T18:30:42.515Z,0.00
2022-11-15T18:36:14.774Z,0.00
2022-11-15T18:41:47.061Z,0.00
2022-11-15T18:47:19.375Z,1.00
2022-11-15T18:49:43.099Z,0.00
2022-11-15T18:55:15.197Z,1.00
2022-11-15T19:00:47.053Z,1.00
2022-11-15T19:06:18.857Z,1.00
2022-11-15T19:11:50.784Z,1.00
2022-11-15T19:17:22.231Z,1.00
2022-11-15T19:22:53.638Z,0.00
2022-11-15T19:28:25.642Z,1.00
2022-11-15T19:33:57.439Z,1.00
2022-11-15T19:39:29.141Z,1.00
2022-11-15T19:45:00.928Z,1.00
2022-11-15T19:50:32.669Z,1.00
2022-11-15T19:56:04.684Z,1.00
2022-11-15T20:01:36.702Z,1.00
2022-11-15T20:07:08.531Z,1.00
2022-11-15T20:12:45.767Z,0.00
2022-11-15T20:18:17.721Z,1.00
2022-11-15T20:23:49.429Z,0.00
2022-11-15T20:29:27.177Z,1.00
2022-11-15T20:34:59.088Z,0.00
2022-11-15T20:40:30.921Z,1.00
2022-11-15T20:46:02.584Z,0.00
2022-11-15T20:51:34.386Z,0.00
2022-11-15T20:57:06.345Z,0.00
2022-11-15T21:02:37.819Z,0.00
2022-11-15T21:08:09.449Z,0.00
2022-11-15T21:13:40.853Z,1.00
2022-11-15T21:19:12.547Z,0.00
2022-11-15T21:24:44.307Z,1.00
2022-11-15T21:30:16.256Z,0.00
2022-11-15T21:35:53.706Z,1.00
2022-11-15T21:46:54.738Z,0.00
2022-11-15T21:52:26.316Z,0.00
2022-11-15T21:57:58.030Z,0.00
2022-11-15T22:03:29.866Z,0.00
2022-11-15T22:14:31.046Z,0.00
2022-11-15T22:20:22.764Z,0.00
2022-11-15T22:25:34.589Z,0.00
2022-11-15T22:37:13.294Z,1.00
2022-11-15T22:42:18.249Z,0.00
2022-11-15T22:47:46.945Z,0.00
2022-11-15T22:53:18.781Z,1.00
2022-11-15T22:58:50.496Z,0.00
2022-11-15T23:04:22.405Z,0.00
2022-11-15T23:09:54.116Z,1.00
2022-11-15T23:15:29.568Z,0.00
2022-11-15T23:20:57.719Z,1.00
2022-11-15T23:26:29.321Z,1.00
2022-11-15T23:32:02.291Z,0.00
2022-11-15T23:37:32.525Z,0.00
2022-11-15T23:43:04.363Z,0.00
2022-11-15T23:48:36.195Z,0.00
2022-11-15T23:54:07.408Z,0.00
2022-11-15T23:59:39.082Z,0.00
